createdAt,value
2018-09-12T00:02:25.509Z,14.73
2018-09-12T00:04:55.605Z,14.73
2018-09-12T00:07:25.690Z,9.77
2018-09-12T00:09:55.776Z,7.17
2018-09-12T00:12:25.864Z,10.47
2018-09-12T00:14:55.956Z,7.43
2018-09-12T00:17:26.060Z,10.07
2018-09-12T00:19:56.200Z,8.17
2018-09-12T00:22:26.500Z,7.37
2018-09-12T00:24:56.632Z,6.73
2018-09-12T00:27:26.705Z,8.13
2018-09-12T00:29:56.775Z,7.43
2018-09-12T00:32:26.856Z,7.40
2018-09-12T00:34:56.936Z,7.80
2018-09-12T00:37:27.900Z,7.63
2018-09-12T00:39:57.996Z,7.10
2018-09-12T00:42:28.120Z,7.43
2018-09-12T00:44:58.192Z,7.30
2018-09-12T00:47:28.291Z,7.30
2018-09-12T00:49:58.409Z,6.67
2018-09-12T00:52:28.534Z,5.90
2018-09-12T00:54:58.627Z,6.50
2018-09-12T00:57:28.768Z,5.97
2018-09-12T00:59:58.895Z,6.40
2018-09-12T01:02:29.110Z,6.47
2018-09-12T01:04:59.221Z,7.37
2018-09-12T01:07:29.425Z,14.10
2018-09-12T01:09:59.531Z,8.20
2018-09-12T01:12:29.652Z,9.10
2018-09-12T01:14:59.818Z,11.87
2018-09-12T01:17:29.953Z,9.13
2018-09-12T01:20:00.148Z,9.23
2018-09-12T01:22:30.224Z,7.73
2018-09-12T01:25:00.285Z,8.37
2018-09-12T01:27:30.404Z,7.70
2018-09-12T01:30:00.563Z,7.07
2018-09-12T01:32:30.645Z,7.57
2018-09-12T01:35:01.023Z,7.23
2018-09-12T01:37:31.188Z,6.87
2018-09-12T01:40:01.294Z,6.80
2018-09-12T01:42:31.379Z,7.00
2018-09-12T01:45:01.449Z,7.00
2018-09-12T01:47:31.524Z,7.00
2018-09-12T01:50:01.653Z,6.97
2018-09-12T01:52:31.883Z,6.50
2018-09-12T01:55:02.024Z,6.80
2018-09-12T01:57:32.121Z,6.80
2018-09-12T02:00:02.216Z,6.40
2018-09-12T02:02:32.296Z,7.23
2018-09-12T02:05:02.409Z,6.30
2018-09-12T02:07:32.491Z,7.20
2018-09-12T02:10:02.620Z,6.50
2018-09-12T02:12:32.755Z,6.67
2018-09-12T02:15:02.990Z,6.30
2018-09-12T02:17:33.184Z,6.33
2018-09-12T02:20:03.497Z,6.70
2018-09-12T02:22:34.072Z,6.83
2018-09-12T02:25:04.229Z,6.60
2018-09-12T02:27:34.301Z,6.77
2018-09-12T02:30:04.525Z,7.13
2018-09-12T02:32:34.628Z,6.43
2018-09-12T02:35:04.836Z,6.07
2018-09-12T02:37:35.009Z,6.73
2018-09-12T02:40:05.936Z,6.37
2018-09-12T02:42:36.056Z,6.17
2018-09-12T02:45:06.716Z,6.43
2018-09-12T02:47:40.382Z,6.40
2018-09-12T02:50:13.567Z,6.10
2018-09-12T02:52:43.700Z,6.20
2018-09-12T02:55:14.156Z,6.10
2018-09-12T02:57:44.315Z,6.70
2018-09-12T03:00:14.430Z,7.00
2018-09-12T03:02:44.516Z,6.10
2018-09-12T03:05:16.704Z,6.20
2018-09-12T03:07:46.889Z,6.70
2018-09-12T03:10:16.948Z,6.60
2018-09-12T03:12:47.025Z,6.03
2018-09-12T03:15:17.128Z,6.53
2018-09-12T03:17:47.209Z,6.03
2018-09-12T03:20:17.291Z,6.70
2018-09-12T03:22:47.365Z,6.20
2018-09-12T03:25:17.452Z,6.33
2018-09-12T03:27:47.617Z,6.10
2018-09-12T03:30:17.687Z,6.27
2018-09-12T03:32:47.744Z,7.50
2018-09-12T03:35:17.824Z,6.90
2018-09-12T03:37:47.896Z,6.00
2018-09-12T03:40:17.981Z,5.93
2018-09-12T03:42:48.061Z,5.80
2018-09-12T03:45:18.232Z,6.07
2018-09-12T03:47:48.467Z,5.90
2018-09-12T03:50:18.540Z,5.70
2018-09-12T03:52:48.624Z,5.97
2018-09-12T03:55:18.730Z,6.10
2018-09-12T03:57:48.825Z,6.07
2018-09-12T04:00:18.906Z,5.97
2018-09-12T04:02:49.027Z,5.87
2018-09-12T04:05:19.080Z,5.93
2018-09-12T04:07:49.197Z,5.37
2018-09-12T04:10:19.272Z,5.97
2018-09-12T04:12:49.348Z,5.63
2018-09-12T04:15:19.445Z,5.60
2018-09-12T04:17:49.548Z,5.70
2018-09-12T04:20:19.617Z,5.67
2018-09-12T04:22:49.716Z,5.60
2018-09-12T04:25:19.801Z,5.80
2018-09-12T04:27:49.917Z,5.87
2018-09-12T04:30:20.014Z,5.70
2018-09-12T04:32:50.198Z,5.33
2018-09-12T04:35:20.317Z,5.50
2018-09-12T04:37:50.425Z,5.60
2018-09-12T04:40:20.491Z,5.77
2018-09-12T04:42:50.630Z,8.23
2018-09-12T04:45:20.685Z,8.00
2018-09-12T04:47:50.824Z,5.70
2018-09-12T04:50:20.904Z,5.77
2018-09-12T04:52:50.996Z,5.53
2018-09-12T04:55:21.137Z,5.60
2018-09-12T04:57:51.203Z,5.93
2018-09-12T05:00:21.292Z,5.80
2018-09-12T05:02:51.382Z,5.47
2018-09-12T05:05:21.465Z,5.00
2018-09-12T05:07:51.576Z,5.10
2018-09-12T05:10:21.707Z,4.80
2018-09-12T05:12:51.785Z,5.57
2018-09-12T05:15:21.865Z,5.13
2018-09-12T05:17:52.000Z,4.93
2018-09-12T05:20:22.278Z,4.70
2018-09-12T05:22:52.376Z,4.70
2018-09-12T05:25:22.476Z,5.00
2018-09-12T05:27:52.679Z,5.20
2018-09-12T05:30:22.822Z,5.03
2018-09-12T05:32:52.876Z,5.00
2018-09-12T05:35:23.016Z,5.20
2018-09-12T05:37:53.085Z,4.43
2018-09-12T05:40:23.237Z,4.50
2018-09-12T05:42:53.321Z,4.70
2018-09-12T05:45:23.420Z,4.80
2018-09-12T05:47:53.492Z,4.60
2018-09-12T05:50:23.568Z,4.80
2018-09-12T05:52:53.765Z,4.70
2018-09-12T05:55:23.835Z,4.57
2018-09-12T05:57:53.938Z,4.43
2018-09-12T06:00:24.052Z,4.57
2018-09-12T06:02:54.124Z,4.90
2018-09-12T06:05:24.253Z,4.43
2018-09-12T06:07:54.385Z,4.93
2018-09-12T06:10:24.508Z,4.53
2018-09-12T06:12:54.572Z,4.63
2018-09-12T06:15:24.758Z,4.53
2018-09-12T06:17:54.813Z,5.13
2018-09-12T06:20:24.912Z,5.63
2018-09-12T06:22:55.013Z,5.87
2018-09-12T06:25:25.165Z,5.50
2018-09-12T06:27:55.269Z,5.23
2018-09-12T06:30:25.332Z,5.03
2018-09-12T06:32:55.468Z,5.20
2018-09-12T06:35:25.528Z,5.17
2018-09-12T06:37:55.697Z,5.07
2018-09-12T06:40:25.745Z,4.97
2018-09-12T06:42:55.840Z,5.30
2018-09-12T06:45:25.940Z,5.07
2018-09-12T06:47:56.025Z,6.03
2018-09-12T06:50:26.095Z,5.17
2018-09-12T06:52:56.212Z,5.37
2018-09-12T06:55:26.552Z,4.90
2018-09-12T06:57:56.661Z,4.90
2018-09-12T07:00:26.769Z,5.20
2018-09-12T07:02:56.857Z,4.87
2018-09-12T07:05:26.952Z,4.83
2018-09-12T07:07:57.045Z,4.90
2018-09-12T07:10:27.180Z,4.50
2018-09-12T07:12:57.280Z,4.93
2018-09-12T07:15:27.500Z,4.93
2018-09-12T07:17:57.584Z,4.50
2018-09-12T07:20:27.652Z,4.73
2018-09-12T07:22:57.740Z,4.83
2018-09-12T07:25:28.090Z,4.73
2018-09-12T07:27:58.208Z,4.50
2018-09-12T07:30:28.569Z,4.73
2018-09-12T07:32:58.795Z,4.80
2018-09-12T07:35:28.957Z,4.67
2018-09-12T07:37:59.099Z,4.40
2018-09-12T07:40:29.192Z,4.80
2018-09-12T07:42:59.436Z,4.47
2018-09-12T07:45:29.618Z,4.63
2018-09-12T07:47:59.768Z,4.37
2018-09-12T07:50:29.912Z,5.37
2018-09-12T07:53:00.008Z,6.63
2018-09-12T07:55:30.080Z,5.67
2018-09-12T07:58:00.188Z,5.60
2018-09-12T08:00:30.352Z,5.60
2018-09-12T08:03:00.376Z,4.83
2018-09-12T08:05:30.530Z,4.97
2018-09-12T08:08:00.656Z,4.47
2018-09-12T08:10:30.712Z,4.50
2018-09-12T08:13:00.833Z,4.47
2018-09-12T08:15:30.951Z,5.07
2018-09-12T08:18:01.046Z,4.63
2018-09-12T08:20:31.161Z,4.57
2018-09-12T08:23:01.230Z,4.80
2018-09-12T08:25:31.324Z,4.57
2018-09-12T08:28:01.409Z,5.17
2018-09-12T08:30:31.580Z,4.80
2018-09-12T08:33:01.769Z,22.23
2018-09-12T08:35:31.832Z,15.37
2018-09-12T08:38:01.920Z,15.60
2018-09-12T08:40:32.031Z,17.03
2018-09-12T08:43:02.152Z,16.90
2018-09-12T08:45:32.236Z,8.53
2018-09-12T08:48:02.401Z,6.17
2018-09-12T08:50:32.477Z,5.23
2018-09-12T08:53:02.669Z,6.13
2018-09-12T08:55:32.688Z,4.93
2018-09-12T08:58:02.785Z,5.23
2018-09-12T09:00:35.293Z,5.60
2018-09-12T09:03:06.681Z,5.67
2018-09-12T09:05:36.808Z,5.47
2018-09-12T09:08:06.945Z,5.50
2018-09-12T09:10:37.143Z,6.93
2018-09-12T09:13:07.288Z,5.73
2018-09-12T09:15:37.407Z,6.17
2018-09-12T09:18:07.698Z,5.60
2018-09-12T09:20:37.792Z,5.53
2018-09-12T09:23:10.877Z,5.97
2018-09-12T09:25:40.957Z,5.80
2018-09-12T09:28:11.133Z,6.07
2018-09-12T09:30:41.268Z,7.33
2018-09-12T09:33:17.657Z,16.77
2018-09-12T09:35:47.850Z,7.90
2018-09-12T09:38:17.847Z,7.47
2018-09-12T09:40:48.064Z,13.60
2018-09-12T09:43:18.201Z,6.83
2018-09-12T09:45:48.320Z,6.70
2018-09-12T09:48:18.445Z,6.40
2018-09-12T09:50:48.522Z,6.07
2018-09-12T09:53:18.580Z,5.80
2018-09-12T09:55:48.724Z,5.33
2018-09-12T09:58:18.837Z,5.50
2018-09-12T10:00:54.041Z,4.93
2018-09-12T10:03:29.329Z,10.70
2018-09-12T10:06:04.603Z,5.97
2018-09-12T10:09:40.531Z,5.47
2018-09-12T10:12:10.667Z,6.97
2018-09-12T10:14:40.775Z,5.70
2018-09-12T10:17:10.861Z,5.40
2018-09-12T10:19:40.920Z,5.90
2018-09-12T10:22:11.023Z,5.93
2018-09-12T10:24:41.109Z,5.53
2018-09-12T10:27:11.171Z,5.57
2018-09-12T10:29:41.248Z,5.70
2018-09-12T10:32:11.320Z,5.73
2018-09-12T10:34:43.381Z,5.80
2018-09-12T10:37:15.857Z,5.40
2018-09-12T10:39:45.948Z,5.80
2018-09-12T10:42:16.023Z,5.43
2018-09-12T10:44:46.144Z,5.93
2018-09-12T10:47:16.225Z,6.50
2018-09-12T10:49:46.433Z,6.00
2018-09-12T10:52:16.500Z,5.90
2018-09-12T10:54:46.584Z,5.93
2018-09-12T10:57:16.656Z,6.40
2018-09-12T10:59:46.744Z,6.27
2018-09-12T11:02:16.855Z,6.00
2018-09-12T11:04:46.931Z,6.40
2018-09-12T11:07:17.092Z,6.20
2018-09-12T11:09:47.333Z,6.10
2018-09-12T11:12:17.340Z,6.07
2018-09-12T11:14:47.433Z,6.07
2018-09-12T11:17:17.500Z,6.33
2018-09-12T11:19:47.604Z,5.77
2018-09-12T11:22:17.756Z,5.93
2018-09-12T11:24:47.889Z,5.30
2018-09-12T11:27:17.955Z,5.47
2018-09-12T11:29:48.037Z,5.47
2018-09-12T11:32:18.104Z,5.20
2018-09-12T11:34:48.171Z,5.67
2018-09-12T11:37:18.292Z,5.97
2018-09-12T11:39:48.360Z,5.30
2018-09-12T11:42:18.473Z,5.50
2018-09-12T11:44:48.557Z,5.63
2018-09-12T11:47:18.701Z,5.50
2018-09-12T11:52:49.616Z,5.40
2018-09-12T11:55:19.805Z,5.37
2018-09-12T11:57:49.880Z,5.50
2018-09-12T12:00:20.088Z,5.47
2018-09-12T12:02:50.179Z,5.67
2018-09-12T12:05:20.319Z,5.40
2018-09-12T12:07:50.387Z,5.80
2018-09-12T12:10:20.522Z,5.33
2018-09-12T12:12:50.596Z,5.57
2018-09-12T12:15:20.710Z,5.23
2018-09-12T12:17:51.356Z,5.90
2018-09-12T12:20:21.423Z,4.77
2018-09-12T12:22:51.560Z,5.40
2018-09-12T12:25:21.683Z,5.07
2018-09-12T12:27:51.752Z,5.13
2018-09-12T12:30:21.824Z,5.57
2018-09-12T12:32:51.904Z,5.70
2018-09-12T12:35:22.553Z,5.20
2018-09-12T12:37:53.040Z,5.20
2018-09-12T12:40:23.450Z,5.50
2018-09-12T12:42:53.527Z,5.10
2018-09-12T12:45:23.733Z,5.40
2018-09-12T12:47:53.832Z,5.60
2018-09-12T12:50:23.901Z,5.47
2018-09-12T12:52:53.978Z,5.40
2018-09-12T12:55:24.044Z,5.40
2018-09-12T12:57:54.180Z,5.47
2018-09-12T13:00:24.257Z,5.47
2018-09-12T13:02:54.336Z,5.07
2018-09-12T13:05:24.408Z,5.50
2018-09-12T13:07:54.521Z,5.27
2018-09-12T13:10:24.601Z,5.30
2018-09-12T13:12:54.684Z,5.40
2018-09-12T13:15:24.800Z,5.73
2018-09-12T13:17:55.001Z,5.13
2018-09-12T13:20:25.093Z,5.10
2018-09-12T13:22:55.173Z,5.47
2018-09-12T13:25:25.317Z,5.80
2018-09-12T13:27:55.448Z,5.60
2018-09-12T13:30:25.488Z,5.60
2018-09-12T13:32:55.609Z,5.70
2018-09-12T13:35:25.747Z,5.67
2018-09-12T13:37:55.900Z,5.40
2018-09-12T13:40:25.984Z,6.00
2018-09-12T13:42:56.128Z,6.00
2018-09-12T13:45:26.215Z,5.40
2018-09-12T13:47:56.288Z,6.00
2018-09-12T13:50:26.366Z,5.77
2018-09-12T13:52:56.441Z,5.40
2018-09-12T13:55:26.552Z,5.80
2018-09-12T13:57:56.616Z,5.83
2018-09-12T14:00:30.252Z,6.10
2018-09-12T14:03:02.380Z,5.70
2018-09-12T14:05:33.316Z,5.73
2018-09-12T14:08:03.391Z,6.00
2018-09-12T14:10:33.476Z,6.10
2018-09-12T14:13:03.540Z,6.20
2018-09-12T14:15:33.620Z,5.57
2018-09-12T14:18:03.719Z,5.87
2018-09-12T14:20:33.796Z,5.80
2018-09-12T14:23:03.882Z,6.00
2018-09-12T14:25:34.000Z,6.60
2018-09-12T14:28:04.188Z,5.90
2018-09-12T14:30:34.280Z,5.87
2018-09-12T14:33:04.371Z,6.13
2018-09-12T14:35:34.485Z,6.80
2018-09-12T14:38:04.589Z,5.60
2018-09-12T14:40:34.673Z,6.33
2018-09-12T14:43:04.750Z,5.93
2018-09-12T14:45:34.816Z,6.30
2018-09-12T14:48:04.892Z,6.30
2018-09-12T14:50:34.992Z,6.37
2018-09-12T14:53:05.108Z,6.30
2018-09-12T14:55:35.225Z,6.23
2018-09-12T14:58:05.344Z,6.70
2018-09-12T15:00:35.468Z,6.67
2018-09-12T15:03:05.559Z,6.07
2018-09-12T15:05:35.644Z,6.27
2018-09-12T15:08:05.861Z,5.90
2018-09-12T15:10:35.996Z,5.93
2018-09-12T15:13:06.328Z,6.27
2018-09-12T15:15:36.392Z,5.87
2018-09-12T15:18:06.488Z,6.10
2018-09-12T15:20:36.598Z,6.30
2018-09-12T15:23:07.024Z,5.70
2018-09-12T15:25:37.132Z,6.37
2018-09-12T15:28:07.301Z,6.83
2018-09-12T15:30:37.364Z,7.03
2018-09-12T15:33:07.567Z,6.40
2018-09-12T15:35:37.666Z,6.47
2018-09-12T15:38:07.732Z,6.10
2018-09-12T15:40:37.836Z,6.00
2018-09-12T15:43:07.982Z,6.10
2018-09-12T15:45:38.060Z,6.33
2018-09-12T15:48:08.149Z,6.27
2018-09-12T15:50:38.228Z,6.30
2018-09-12T15:53:08.380Z,6.60
2018-09-12T15:55:38.476Z,6.90
2018-09-12T15:58:08.612Z,6.60
2018-09-12T16:00:38.672Z,6.60
2018-09-12T16:03:08.897Z,7.53
2018-09-12T16:05:38.961Z,6.53
2018-09-12T16:08:09.165Z,6.60
2018-09-12T16:10:39.276Z,6.77
2018-09-12T16:13:09.410Z,6.90
2018-09-12T16:15:39.505Z,7.37
2018-09-12T16:18:09.612Z,6.90
2018-09-12T16:20:39.683Z,7.10
2018-09-12T16:23:09.819Z,6.93
2018-09-12T16:25:39.848Z,7.10
2018-09-12T16:28:09.946Z,7.37
2018-09-12T16:30:40.025Z,7.20
2018-09-12T16:33:10.117Z,7.10
2018-09-12T16:35:40.188Z,6.93
2018-09-12T16:38:10.316Z,7.70
2018-09-12T16:40:40.384Z,7.40
2018-09-12T16:43:10.494Z,7.37
2018-09-12T16:45:40.580Z,6.90
2018-09-12T16:48:10.672Z,7.30
2018-09-12T16:50:40.834Z,7.60
2018-09-12T16:53:10.892Z,6.80
2018-09-12T16:55:40.999Z,7.47
2018-09-12T16:58:11.088Z,7.23
2018-09-12T17:00:41.270Z,7.90
2018-09-12T17:03:11.359Z,8.10
2018-09-12T17:05:42.176Z,7.50
2018-09-12T17:08:12.272Z,7.80
2018-09-12T17:10:42.335Z,7.70
2018-09-12T17:13:12.408Z,7.80
2018-09-12T17:15:42.489Z,7.93
2018-09-12T17:18:12.552Z,7.23
2018-09-12T17:20:42.632Z,7.33
2018-09-12T17:23:12.736Z,10.97
2018-09-12T17:25:42.856Z,14.87
2018-09-12T17:28:12.952Z,29.20
2018-09-12T17:30:43.040Z,9.13
2018-09-12T17:33:13.196Z,33.83
2018-09-12T17:35:43.348Z,26.13
2018-09-12T17:38:13.459Z,29.20
2018-09-12T17:40:43.564Z,10.87
2018-09-12T17:43:13.748Z,12.47
2018-09-12T17:45:43.893Z,10.90
2018-09-12T17:48:14.008Z,13.57
2018-09-12T17:50:44.124Z,12.07
2018-09-12T17:53:14.239Z,10.60
2018-09-12T17:55:44.374Z,10.33
2018-09-12T17:58:14.461Z,9.87
2018-09-12T18:00:44.597Z,9.70
2018-09-12T18:03:14.700Z,9.77
2018-09-12T18:05:44.809Z,9.97
2018-09-12T18:08:14.874Z,8.53
2018-09-12T18:10:45.160Z,9.33
2018-09-12T18:13:15.803Z,8.53
2018-09-12T18:15:45.896Z,8.67
2018-09-12T18:18:15.955Z,8.67
2018-09-12T18:20:47.032Z,9.73
2018-09-12T18:23:17.128Z,9.00
2018-09-12T18:25:47.239Z,9.87
2018-09-12T18:28:17.445Z,9.30
2018-09-12T18:30:47.603Z,9.73
2018-09-12T18:33:17.672Z,9.43
2018-09-12T18:35:47.816Z,9.43
2018-09-12T18:38:17.960Z,10.07
2018-09-12T18:40:48.097Z,10.20
2018-09-12T18:43:18.312Z,10.03
2018-09-12T18:45:48.396Z,10.27
2018-09-12T18:48:18.489Z,10.43
2018-09-12T18:50:48.580Z,9.20
2018-09-12T18:53:18.696Z,8.93
2018-09-12T18:55:48.783Z,9.30
2018-09-12T18:58:18.896Z,9.90
2018-09-12T19:00:48.955Z,29.40
2018-09-12T19:03:19.072Z,28.83
2018-09-12T19:05:49.187Z,13.60
2018-09-12T19:08:19.825Z,11.13
2018-09-12T19:10:50.104Z,14.17
2018-09-12T19:13:20.328Z,13.23
2018-09-12T19:15:50.425Z,13.60
2018-09-12T19:18:20.585Z,11.43
2018-09-12T19:20:50.636Z,11.80
2018-09-12T19:23:20.824Z,10.93
2018-09-12T19:25:50.977Z,11.47
2018-09-12T19:28:21.120Z,12.00
2018-09-12T19:30:51.204Z,146.83
2018-09-12T19:33:21.289Z,179.67
2018-09-12T19:35:51.427Z,51.73
2018-09-12T19:38:21.476Z,62.37
2018-09-12T19:40:51.557Z,52.70
2018-09-12T19:43:21.636Z,34.53
2018-09-12T19:45:51.708Z,28.47
2018-09-12T19:48:21.768Z,25.17
2018-09-12T19:50:51.992Z,30.33
2018-09-12T19:53:22.073Z,76.20
2018-09-12T19:55:52.232Z,134.03
2018-09-12T19:58:22.541Z,38.97
2018-09-12T20:00:52.636Z,20.60
2018-09-12T20:03:22.758Z,80.97
2018-09-12T20:05:52.868Z,23.90
2018-09-12T20:08:23.261Z,25.13
2018-09-12T20:10:53.446Z,18.63
2018-09-12T20:13:23.528Z,16.63
2018-09-12T20:15:53.825Z,14.97
2018-09-12T20:18:23.900Z,16.87
2018-09-12T20:20:54.014Z,15.27
2018-09-12T20:23:24.156Z,13.57
2018-09-12T20:25:54.260Z,16.13
2018-09-12T20:28:24.345Z,14.70
2018-09-12T20:30:54.423Z,14.27
2018-09-12T20:33:24.772Z,12.07
2018-09-12T20:35:55.132Z,13.03
2018-09-12T20:38:25.595Z,12.53
2018-09-12T20:40:55.703Z,12.07
2018-09-12T20:43:25.852Z,11.90
2018-09-12T20:45:55.964Z,10.10
2018-09-12T20:48:26.048Z,10.40
2018-09-12T20:50:56.145Z,10.57
2018-09-12T20:53:26.436Z,10.37
2018-09-12T20:55:56.551Z,11.67
2018-09-12T20:58:26.630Z,10.97
2018-09-12T21:00:56.707Z,10.10
2018-09-12T21:03:26.824Z,11.07
2018-09-12T21:05:56.958Z,9.97
2018-09-12T21:08:27.040Z,11.40
2018-09-12T21:10:57.235Z,10.90
2018-09-12T21:13:27.215Z,11.23
2018-09-12T21:15:57.291Z,10.90
2018-09-12T21:18:27.365Z,10.77
2018-09-12T21:20:57.469Z,33.33
2018-09-12T21:23:27.647Z,14.20
2018-09-12T21:25:57.704Z,15.10
2018-09-12T21:28:27.811Z,16.67
2018-09-12T21:30:57.884Z,12.47
2018-09-12T21:33:28.032Z,12.17
2018-09-12T21:35:58.183Z,15.87
2018-09-12T21:38:28.489Z,14.80
2018-09-12T21:40:58.639Z,11.67
2018-09-12T21:43:28.734Z,11.43
2018-09-12T21:45:58.832Z,10.00
2018-09-12T21:48:28.940Z,11.60
2018-09-12T21:50:59.072Z,12.07
2018-09-12T21:53:29.161Z,11.40
2018-09-12T21:55:59.273Z,10.40
2018-09-12T21:58:29.355Z,10.43
2018-09-12T22:00:59.880Z,10.47
2018-09-12T22:03:30.440Z,11.57
2018-09-12T22:06:00.530Z,10.40
2018-09-12T22:08:30.621Z,10.90
2018-09-12T22:11:00.683Z,10.57
2018-09-12T22:13:30.777Z,10.50
2018-09-12T22:16:00.869Z,22.33
2018-09-12T22:18:30.940Z,80.63
2018-09-12T22:21:01.012Z,15.87
2018-09-12T22:23:31.080Z,13.63
2018-09-12T22:26:01.176Z,12.97
2018-09-12T22:28:31.351Z,14.43
2018-09-12T22:31:01.533Z,16.13
2018-09-12T22:33:31.623Z,13.07
2018-09-12T22:36:01.742Z,13.43
2018-09-12T22:38:31.828Z,13.03
2018-09-12T22:41:01.938Z,11.67
2018-09-12T22:43:32.052Z,10.53
2018-09-12T22:46:02.212Z,11.60
2018-09-12T22:48:32.344Z,10.77
2018-09-12T22:51:02.552Z,10.13
2018-09-12T22:53:32.611Z,10.30
2018-09-12T22:56:02.751Z,10.60
2018-09-12T22:58:32.889Z,10.60
2018-09-12T23:01:02.980Z,32.10
2018-09-12T23:03:33.088Z,25.53
2018-09-12T23:06:03.285Z,15.10
2018-09-12T23:08:33.427Z,15.83
2018-09-12T23:11:03.559Z,19.33
2018-09-12T23:13:33.651Z,18.77
2018-09-12T23:16:03.775Z,16.17
2018-09-12T23:18:33.864Z,16.70
2018-09-12T23:21:03.989Z,13.80
2018-09-12T23:23:34.064Z,12.83
2018-09-12T23:26:04.197Z,11.83
2018-09-12T23:28:34.296Z,11.00
2018-09-12T23:31:04.384Z,11.00
2018-09-12T23:33:34.525Z,11.27
2018-09-12T23:36:04.620Z,11.33
2018-09-12T23:38:34.703Z,9.60
2018-09-12T23:41:04.861Z,10.20
2018-09-12T23:43:34.934Z,10.70
2018-09-12T23:46:05.176Z,10.20
2018-09-12T23:48:35.257Z,10.40
2018-09-12T23:51:05.804Z,9.60
2018-09-12T23:53:35.863Z,9.70
2018-09-12T23:56:06.100Z,9.70
2018-09-12T23:58:36.191Z,10.10
